Time;durP1;ratioP1;P1;durP2;ratioP2;P2;SDS_P1;SDS_P2;PMS_P1;PMS_P2;Temp;Humidity;BMP_temperature;BMP_pressure;BME280_temperature;BME280_humidity;BME280_pressure;Samples;Min_cycle;Max_cycle;Signal;HPM_P1;HPM_P2
2022/05/21 00:00:00;;;;;;;25.15;13.20;;;;;;;;;;5002322;28;20026;-78
2022/05/21 00:02:26;;;;;;;28.50;13.70;;;;;;;;;;5001354;28;20278;-77
2022/05/21 00:04:51;;;;;;;26.90;15.73;;;;;;;;;;4999341;28;20267;-75
2022/05/21 00:07:16;;;;;;;20.40;12.60;;;;;;;;;;5001383;28;20532;-76
2022/05/21 00:09:41;;;;;;;28.30;12.57;;;;;;;;;;4999037;28;20271;-74
2022/05/21 00:12:07;;;;;;;31.53;13.63;;;;;;;;;;5000566;28;20042;-75
2022/05/21 00:14:34;;;;;;;27.52;12.73;;;;;;;;;;5001234;28;20267;-74
2022/05/21 00:16:59;;;;;;;29.88;13.80;;;;;;;;;;4998368;28;20027;-78
2022/05/21 00:19:24;;;;;;;27.75;13.93;;;;;;;;;;4999895;28;20025;-75
2022/05/21 00:21:49;;;;;;;25.15;11.25;;;;;;;;;;5000693;28;20033;-78
2022/05/21 00:24:15;;;;;;;25.37;13.67;;;;;;;;;;5002183;28;20053;-78
2022/05/21 00:26:40;;;;;;;26.10;11.40;;;;;;;;;;4996958;28;20272;-76
2022/05/21 00:29:05;;;;;;;25.25;12.32;;;;;;;;;;4997491;28;20310;-77
2022/05/21 00:31:30;;;;;;;26.37;12.57;;;;;;;;;;4999672;28;20460;-75
2022/05/21 00:33:55;;;;;;;20.70;11.07;;;;;;;;;;4993131;28;20287;-77
2022/05/21 00:36:21;;;;;;;29.23;14.45;;;;;;;;;;4995210;28;20294;-73
2022/05/21 00:38:46;;;;;;;29.73;13.98;;;;;;;;;;4992363;28;20432;-78
2022/05/21 00:41:13;;;;;;;20.50;11.15;;;;;;;;;;4994084;28;20037;-77
2022/05/21 00:43:38;;;;;;;24.58;11.13;;;;;;;;;;4998204;28;20014;-81
2022/05/21 00:46:05;;;;;;;23.98;10.27;;;;;;;;;;4989023;28;20017;-79
2022/05/21 00:48:30;;;;;;;24.13;10.52;;;;;;;;;;4991285;28;20077;-76
2022/05/21 00:50:55;;;;;;;23.77;10.52;;;;;;;;;;4991564;28;20030;-74
2022/05/21 00:53:21;;;;;;;21.17;9.82;;;;;;;;;;4994511;28;20377;-79
2022/05/21 00:55:46;;;;;;;24.48;10.40;;;;;;;;;;4995602;28;20026;-77
2022/05/21 01:01:00;;;;;;;20.85;8.52;;;;;;;;;;4997417;28;20594;-79
2022/05/21 01:03:27;;;;;;;21.33;9.02;;;;;;;;;;4994547;28;20018;-81
2022/05/21 01:05:52;;;;;;;20.15;8.82;;;;;;;;;;4994058;28;20018;-79
2022/05/21 01:08:17;;;;;;;17.50;9.00;;;;;;;;;;4998693;28;20539;-78
2022/05/21 01:10:45;;;;;;;19.90;9.90;;;;;;;;;;5000437;28;20368;-78
2022/05/21 01:13:14;;;;;;;24.08;8.63;;;;;;;;;;4997929;28;20393;-78
2022/05/21 01:15:41;;;;;;;19.23;10.20;;;;;;;;;;4993494;28;20025;-79
2022/05/21 01:18:07;;;;;;;19.00;8.77;;;;;;;;;;4997650;28;20472;-78
2022/05/21 01:20:37;;;;;;;18.67;9.35;;;;;;;;;;4999994;28;20147;-73
2022/05/21 01:23:03;;;;;;;17.23;8.13;;;;;;;;;;4998605;28;20029;-73
2022/05/21 01:25:29;;;;;;;25.50;9.00;;;;;;;;;;4999293;28;20037;-75
2022/05/21 01:27:54;;;;;;;22.52;11.10;;;;;;;;;;5000738;28;20025;-72
2022/05/21 01:30:22;;;;;;;19.13;9.90;;;;;;;;;;5001961;28;20037;-78
2022/05/21 01:32:48;;;;;;;20.33;9.20;;;;;;;;;;5000663;28;20378;-80
2022/05/21 01:35:14;;;;;;;24.83;10.88;;;;;;;;;;4998697;28;20076;-74
2022/05/21 01:37:41;;;;;;;21.27;10.55;;;;;;;;;;5004525;28;20068;-74
2022/05/21 01:40:07;;;;;;;18.23;10.30;;;;;;;;;;4999858;28;20022;-78
2022/05/21 01:42:33;;;;;;;21.25;10.35;;;;;;;;;;4997467;28;20105;-77
2022/05/21 01:44:59;;;;;;;31.33;11.10;;;;;;;;;;5000046;28;20105;-76
2022/05/21 01:47:24;;;;;;;23.73;9.85;;;;;;;;;;5002350;28;21661;-79
2022/05/21 01:49:51;;;;;;;22.85;9.07;;;;;;;;;;4999971;28;20030;-75
2022/05/21 01:52:16;;;;;;;22.35;10.05;;;;;;;;;;5003110;28;20033;-78
2022/05/21 01:54:42;;;;;;;23.30;10.00;;;;;;;;;;4997660;28;20026;-77
2022/05/21 01:57:09;;;;;;;20.87;9.20;;;;;;;;;;4995488;28;20276;-81
2022/05/21 01:59:34;;;;;;;19.45;9.27;;;;;;;;;;4998532;28;20297;-79
2022/05/21 02:02:00;;;;;;;20.17;10.25;;;;;;;;;;4998579;28;20034;-81
2022/05/21 02:04:25;;;;;;;27.75;10.20;;;;;;;;;;5000807;28;20657;-75
2022/05/21 02:06:50;;;;;;;21.15;11.10;;;;;;;;;;5016334;28;20025;-76
2022/05/21 02:09:15;;;;;;;19.27;8.68;;;;;;;;;;5002268;28;20755;-79
2022/05/21 02:11:41;;;;;;;27.13;9.82;;;;;;;;;;4998837;28;20034;-77
2022/05/21 02:14:07;;;;;;;20.17;10.05;;;;;;;;;;4997253;28;20041;-73
2022/05/21 02:16:34;;;;;;;23.13;9.90;;;;;;;;;;4999315;28;20032;-80
2022/05/21 02:19:01;;;;;;;20.48;10.90;;;;;;;;;;5000153;28;20064;-79
2022/05/21 02:21:26;;;;;;;25.02;9.18;;;;;;;;;;4997475;28;20037;-79
2022/05/21 02:23:51;;;;;;;20.00;10.48;;;;;;;;;;4994723;28;20433;-78
2022/05/21 02:26:17;;;;;;;23.50;11.13;;;;;;;;;;4997356;28;20025;-80
2022/05/21 02:28:42;;;;;;;17.75;8.43;;;;;;;;;;4999126;28;20257;-78
2022/05/21 02:31:07;;;;;;;20.02;8.80;;;;;;;;;;4998022;28;20076;-78
2022/05/21 02:33:33;;;;;;;23.23;9.18;;;;;;;;;;4997615;28;20038;-79
2022/05/21 02:35:58;;;;;;;21.08;9.75;;;;;;;;;;4997401;28;20030;-77
2022/05/21 02:41:14;;;;;;;20.60;8.27;;;;;;;;;;4995265;28;20282;-84
2022/05/21 02:43:40;;;;;;;20.40;9.52;;;;;;;;;;5003191;28;20065;-74
2022/05/21 02:46:06;;;;;;;22.40;10.45;;;;;;;;;;5005035;28;20105;-81
2022/05/21 02:48:31;;;;;;;27.70;10.10;;;;;;;;;;5005117;28;20040;-84
2022/05/21 02:50:56;;;;;;;20.33;9.40;;;;;;;;;;5000999;28;20067;-76
2022/05/21 02:53:22;;;;;;;31.97;12.03;;;;;;;;;;5005795;28;20022;-78
2022/05/21 02:55:47;;;;;;;25.25;9.98;;;;;;;;;;5006085;28;20282;-80
2022/05/21 02:58:12;;;;;;;26.77;9.43;;;;;;;;;;5000060;28;20032;-80
2022/05/21 03:00:37;;;;;;;18.40;8.77;;;;;;;;;;4995228;28;20294;-77
2022/05/21 03:03:03;;;;;;;32.13;11.43;;;;;;;;;;4994745;28;20083;-78
2022/05/21 03:05:31;;;;;;;24.87;10.97;;;;;;;;;;4993390;28;20029;-77
2022/05/21 03:07:57;;;;;;;30.42;12.23;;;;;;;;;;4994137;28;20267;-77
2022/05/21 03:10:23;;;;;;;27.30;10.57;;;;;;;;;;4996678;28;20376;-78
2022/05/21 03:12:49;;;;;;;25.52;9.13;;;;;;;;;;4993002;28;20022;-77
2022/05/21 03:15:15;;;;;;;23.75;12.25;;;;;;;;;;4997837;28;20025;-78
2022/05/21 03:17:40;;;;;;;30.55;12.25;;;;;;;;;;4991935;28;20030;-77
2022/05/21 03:20:06;;;;;;;34.37;14.40;;;;;;;;;;4992303;28;20120;-75
2022/05/21 03:22:31;;;;;;;34.15;13.07;;;;;;;;;;4995877;28;20289;-77
2022/05/21 03:24:56;;;;;;;27.10;11.82;;;;;;;;;;4996033;28;20034;-76
2022/05/21 03:27:22;;;;;;;27.60;11.70;;;;;;;;;;4994573;28;20373;-80
2022/05/21 03:29:47;;;;;;;29.23;11.37;;;;;;;;;;4995181;28;20407;-78
2022/05/21 03:32:12;;;;;;;31.97;13.30;;;;;;;;;;4999143;28;20099;-78
2022/05/21 03:34:37;;;;;;;33.07;12.73;;;;;;;;;;4993905;28;20468;-76
2022/05/21 03:37:03;;;;;;;27.38;12.02;;;;;;;;;;4992538;28;20275;-77
2022/05/21 03:39:28;;;;;;;29.35;10.57;;;;;;;;;;4996162;28;20436;-79
2022/05/21 03:41:54;;;;;;;38.63;14.63;;;;;;;;;;4995852;28;20101;-78
2022/05/21 03:44:19;;;;;;;26.75;11.70;;;;;;;;;;4997244;28;20030;-80
2022/05/21 03:46:45;;;;;;;31.13;11.65;;;;;;;;;;4994213;28;20033;-79
2022/05/21 03:49:10;;;;;;;32.22;12.77;;;;;;;;;;4996162;28;20117;-83
2022/05/21 03:51:37;;;;;;;28.38;12.60;;;;;;;;;;4993756;28;20045;-79
2022/05/21 03:54:02;;;;;;;29.98;11.85;;;;;;;;;;4992274;28;20488;-80
2022/05/21 03:56:27;;;;;;;32.92;12.45;;;;;;;;;;4994214;28;20026;-77
2022/05/21 03:58:52;;;;;;;24.42;11.07;;;;;;;;;;4993079;28;20037;-80
2022/05/21 04:01:18;;;;;;;27.50;11.98;;;;;;;;;;4991111;28;20030;-78
2022/05/21 04:03:43;;;;;;;26.38;10.95;;;;;;;;;;4992844;28;20033;-76
2022/05/21 04:06:08;;;;;;;26.73;11.85;;;;;;;;;;4996104;28;20030;-79
2022/05/21 04:08:34;;;;;;;18.77;9.15;;;;;;;;;;4994952;28;20092;-75
2022/05/21 04:10:59;;;;;;;26.98;13.10;;;;;;;;;;4989640;28;20137;-75
2022/05/21 04:13:25;;;;;;;32.93;13.47;;;;;;;;;;4991742;28;20026;-77
2022/05/21 04:15:51;;;;;;;27.65;12.00;;;;;;;;;;4990755;28;20357;-76
2022/05/21 04:18:17;;;;;;;30.63;12.25;;;;;;;;;;4997215;28;20077;-75
2022/05/21 04:20:42;;;;;;;37.17;11.95;;;;;;;;;;4992810;28;20072;-78
2022/05/21 04:23:07;;;;;;;31.50;11.83;;;;;;;;;;4983005;28;20487;-79
2022/05/21 04:25:33;;;;;;;33.35;12.75;;;;;;;;;;4994281;28;20438;-80
2022/05/21 04:27:58;;;;;;;35.83;12.52;;;;;;;;;;4995295;28;20113;-77
2022/05/21 04:30:26;;;;;;;27.20;11.18;;;;;;;;;;4995791;28;20373;-78
2022/05/21 04:32:52;;;;;;;34.22;11.32;;;;;;;;;;4998972;28;20026;-79
2022/05/21 04:35:18;;;;;;;38.67;13.13;;;;;;;;;;4993791;28;20365;-80
2022/05/21 04:37:43;;;;;;;33.22;11.23;;;;;;;;;;4994061;28;20127;-78
2022/05/21 04:40:12;;;;;;;33.95;13.63;;;;;;;;;;4998349;28;20089;-77
2022/05/21 04:42:37;;;;;;;35.22;13.55;;;;;;;;;;4999075;28;20524;-78
2022/05/21 04:45:03;;;;;;;30.58;12.38;;;;;;;;;;4997290;28;20539;-81
2022/05/21 04:47:28;;;;;;;35.35;12.82;;;;;;;;;;5001934;28;20030;-77
2022/05/21 04:49:53;;;;;;;40.63;13.53;;;;;;;;;;5004026;28;20476;-75
2022/05/21 04:52:18;;;;;;;36.60;11.45;;;;;;;;;;4999711;28;20293;-78
2022/05/21 04:54:44;;;;;;;34.13;12.03;;;;;;;;;;5003954;28;20333;-79
2022/05/21 04:57:09;;;;;;;31.37;12.27;;;;;;;;;;4998497;28;20073;-78
2022/05/21 04:59:34;;;;;;;27.70;13.18;;;;;;;;;;4997458;28;20037;-74
2022/05/21 05:01:59;;;;;;;26.85;12.07;;;;;;;;;;4999679;28;20026;-79
2022/05/21 05:04:25;;;;;;;49.97;14.73;;;;;;;;;;4999811;28;20252;-78
2022/05/21 05:06:50;;;;;;;28.92;12.13;;;;;;;;;;4997671;28;20021;-81
2022/05/21 05:09:19;;;;;;;33.67;13.10;;;;;;;;;;5000379;28;20029;-79
2022/05/21 05:11:44;;;;;;;40.20;13.27;;;;;;;;;;4999606;28;20033;-76
2022/05/21 05:14:09;;;;;;;42.83;13.50;;;;;;;;;;5000763;28;20030;-76
2022/05/21 05:16:35;;;;;;;37.97;11.80;;;;;;;;;;4995162;28;20113;-77
2022/05/21 05:19:00;;;;;;;36.25;15.65;;;;;;;;;;5001225;28;20323;-79
2022/05/21 05:21:25;;;;;;;39.38;14.05;;;;;;;;;;5001932;28;20149;-80
2022/05/21 05:23:50;;;;;;;32.23;12.20;;;;;;;;;;5004680;28;20059;-79
2022/05/21 05:26:16;;;;;;;44.17;13.10;;;;;;;;;;5008054;28;20068;-82
2022/05/21 05:28:41;;;;;;;34.30;11.60;;;;;;;;;;5006241;28;20026;-81
2022/05/21 05:31:06;;;;;;;43.63;10.97;;;;;;;;;;5011156;28;20390;-75
2022/05/21 05:33:33;;;;;;;25.80;10.93;;;;;;;;;;5009486;28;20033;-82
2022/05/21 05:35:58;;;;;;;30.50;10.20;;;;;;;;;;5007004;28;20028;-78
2022/05/21 05:38:23;;;;;;;31.83;10.57;;;;;;;;;;5009112;28;20030;-82
2022/05/21 05:40:50;;;;;;;28.17;8.85;;;;;;;;;;5003149;28;20347;-81
2022/05/21 05:43:16;;;;;;;36.10;9.75;;;;;;;;;;5012561;28;20026;-76
2022/05/21 05:45:41;;;;;;;28.85;9.27;;;;;;;;;;5010025;28;20033;-83
2022/05/21 05:48:07;;;;;;;31.33;10.13;;;;;;;;;;5009137;28;20112;-77
2022/05/21 05:50:32;;;;;;;27.70;8.88;;;;;;;;;;5010616;28;20028;-80
2022/05/21 05:53:02;;;;;;;29.20;8.70;;;;;;;;;;5007512;28;20033;-80
2022/05/21 05:55:27;;;;;;;34.75;9.30;;;;;;;;;;5010251;28;20016;-79
2022/05/21 05:57:53;;;;;;;27.02;8.65;;;;;;;;;;5008503;28;20025;-80
2022/05/21 06:00:19;;;;;;;27.80;7.33;;;;;;;;;;5011476;28;20061;-79
2022/05/21 06:02:59;;;;;;;30.58;8.80;;;;;;;;;;5010779;28;20248;-80
2022/05/21 06:05:26;;;;;;;30.98;7.75;;;;;;;;;;5008360;28;20018;-78
2022/05/21 06:07:51;;;;;;;22.45;7.82;;;;;;;;;;5009219;28;20045;-76
2022/05/21 06:10:24;;;;;;;31.27;8.38;;;;;;;;;;5005834;28;20041;-79
2022/05/21 06:12:49;;;;;;;30.48;6.85;;;;;;;;;;5004425;28;20030;-81
2022/05/21 06:15:15;;;;;;;36.03;6.70;;;;;;;;;;5008740;28;20155;-76
2022/05/21 06:17:40;;;;;;;30.80;6.97;;;;;;;;;;5007741;28;20025;-80
2022/05/21 06:20:07;;;;;;;31.02;7.00;;;;;;;;;;5009530;28;20412;-79
2022/05/21 06:22:32;;;;;;;19.52;6.80;;;;;;;;;;5001950;28;20077;-80
2022/05/21 06:24:58;;;;;;;29.40;6.60;;;;;;;;;;5001784;28;20034;-78
2022/05/21 06:27:23;;;;;;;28.92;7.53;;;;;;;;;;5008207;28;20021;-78
2022/05/21 06:29:48;;;;;;;25.67;7.43;;;;;;;;;;5002897;28;20045;-79
2022/05/21 06:32:13;;;;;;;26.50;6.95;;;;;;;;;;5006159;28;20294;-80
2022/05/21 06:34:38;;;;;;;31.40;8.80;;;;;;;;;;5007581;28;20057;-78
2022/05/21 06:37:04;;;;;;;25.33;8.53;;;;;;;;;;5004748;28;20029;-80
2022/05/21 06:39:33;;;;;;;23.48;7.53;;;;;;;;;;4999721;28;20275;-79
2022/05/21 06:41:58;;;;;;;36.35;9.02;;;;;;;;;;5006924;28;20042;-77
2022/05/21 06:44:24;;;;;;;25.70;9.23;;;;;;;;;;5004845;28;20018;-79
2022/05/21 06:46:49;;;;;;;23.30;8.63;;;;;;;;;;5001406;28;20026;-74
2022/05/21 06:49:14;;;;;;;25.33;10.07;;;;;;;;;;5001204;28;20033;-79
2022/05/21 06:51:39;;;;;;;32.33;9.00;;;;;;;;;;5005349;28;20112;-77
2022/05/21 06:54:04;;;;;;;30.48;9.55;;;;;;;;;;4999850;28;20018;-75
2022/05/21 06:56:30;;;;;;;36.73;11.03;;;;;;;;;;4997956;28;20026;-75
2022/05/21 06:58:55;;;;;;;39.97;10.97;;;;;;;;;;5002531;28;20297;-75
2022/05/21 07:01:20;;;;;;;29.53;9.60;;;;;;;;;;4994650;28;20374;-78
2022/05/21 07:03:45;;;;;;;24.45;8.63;;;;;;;;;;4997378;28;20276;-76
2022/05/21 07:08:54;;;;;;;34.03;10.77;;;;;;;;;;5001585;28;20040;-75
2022/05/21 07:11:20;;;;;;;26.80;9.10;;;;;;;;;;5002534;28;20033;-78
2022/05/21 07:13:45;;;;;;;28.75;9.50;;;;;;;;;;5000404;28;20392;-83
2022/05/21 07:16:10;;;;;;;26.23;9.18;;;;;;;;;;4998841;28;20041;-80
2022/05/21 07:18:36;;;;;;;25.45;9.55;;;;;;;;;;4998591;28;20041;-72
2022/05/21 07:21:01;;;;;;;25.15;8.77;;;;;;;;;;4998131;28;20037;-76
2022/05/21 07:23:27;;;;;;;34.63;10.43;;;;;;;;;;4997126;28;20022;-74
2022/05/21 07:25:53;;;;;;;29.45;9.07;;;;;;;;;;4998133;28;20113;-75
2022/05/21 07:28:18;;;;;;;28.33;8.80;;;;;;;;;;4997129;28;20509;-73
2022/05/21 07:30:44;;;;;;;32.83;9.63;;;;;;;;;;4998951;28;20512;-77
2022/05/21 07:33:10;;;;;;;23.23;8.93;;;;;;;;;;5001336;28;20670;-77
2022/05/21 07:35:37;;;;;;;22.20;8.73;;;;;;;;;;5001958;28;20026;-79
2022/05/21 07:38:02;;;;;;;23.08;9.25;;;;;;;;;;4998712;28;20026;-75
2022/05/21 07:40:28;;;;;;;27.40;8.93;;;;;;;;;;4997785;28;20021;-87
2022/05/21 07:42:53;;;;;;;29.15;10.18;;;;;;;;;;4998011;28;20217;-74
2022/05/21 07:45:19;;;;;;;21.55;7.68;;;;;;;;;;5000101;28;20030;-76
2022/05/21 07:47:45;;;;;;;29.38;8.80;;;;;;;;;;4996793;28;20021;-82
2022/05/21 07:50:11;;;;;;;20.45;8.32;;;;;;;;;;4999846;28;20384;-75
2022/05/21 07:52:37;;;;;;;20.63;8.57;;;;;;;;;;5001641;28;20368;-81
2022/05/21 07:55:02;;;;;;;16.95;8.57;;;;;;;;;;5001494;28;20396;-82
2022/05/21 07:57:28;;;;;;;23.83;7.90;;;;;;;;;;4999270;28;20463;-79
2022/05/21 07:59:53;;;;;;;28.00;8.43;;;;;;;;;;5001990;28;20432;-78
2022/05/21 08:02:18;;;;;;;21.50;7.63;;;;;;;;;;4999092;28;20038;-75
2022/05/21 08:04:45;;;;;;;23.13;7.45;;;;;;;;;;4996872;28;21198;-81
2022/05/21 08:07:10;;;;;;;22.55;7.85;;;;;;;;;;4999946;28;20033;-77
2022/05/21 08:09:36;;;;;;;23.10;7.20;;;;;;;;;;5001009;28;20022;-79
2022/05/21 08:12:02;;;;;;;24.52;7.15;;;;;;;;;;5003369;28;20018;-77
2022/05/21 08:14:27;;;;;;;18.67;5.85;;;;;;;;;;4997503;28;20041;-83
2022/05/21 08:16:52;;;;;;;22.33;6.03;;;;;;;;;;4995473;28;20021;-76
2022/05/21 08:19:17;;;;;;;22.13;6.90;;;;;;;;;;5004899;28;20296;-86
2022/05/21 08:21:43;;;;;;;18.75;6.25;;;;;;;;;;5009523;28;20025;-89
2022/05/21 08:26:57;;;;;;;20.25;6.07;;;;;;;;;;4996918;28;20037;-81
2022/05/21 08:29:22;;;;;;;16.90;6.10;;;;;;;;;;5005019;28;20472;-74
2022/05/21 08:31:47;;;;;;;24.10;6.20;;;;;;;;;;5005565;28;20036;-75
2022/05/21 08:34:13;;;;;;;25.47;6.80;;;;;;;;;;5009571;28;20117;-80
2022/05/21 08:36:38;;;;;;;21.20;5.63;;;;;;;;;;5004014;28;20026;-79
2022/05/21 08:39:03;;;;;;;20.10;6.50;;;;;;;;;;5007379;28;20713;-76
2022/05/21 08:41:31;;;;;;;17.92;5.57;;;;;;;;;;5010157;28;20030;-74
2022/05/21 08:44:05;;;;;;;20.17;6.13;;;;;;;;;;5009790;28;20120;-75
2022/05/21 08:46:49;;;;;;;20.02;7.03;;;;;;;;;;5005804;28;20022;-73
2022/05/21 08:49:19;;;;;;;23.50;6.55;;;;;;;;;;5010004;28;20428;-76
2022/05/21 08:51:47;;;;;;;19.67;6.00;;;;;;;;;;5010366;28;20017;-78
2022/05/21 08:54:13;;;;;;;19.45;6.93;;;;;;;;;;5005508;28;20778;-77
2022/05/21 08:56:39;;;;;;;19.25;6.03;;;;;;;;;;5002791;28;20038;-82
2022/05/21 08:59:06;;;;;;;19.02;6.55;;;;;;;;;;5009367;28;20492;-83
2022/05/21 09:01:33;;;;;;;20.05;6.25;;;;;;;;;;5012035;28;20026;-80
2022/05/21 09:03:58;;;;;;;22.58;6.10;;;;;;;;;;5007956;28;20037;-80
2022/05/21 09:06:30;;;;;;;22.38;6.15;;;;;;;;;;5007569;28;20010;-75
2022/05/21 09:09:07;;;;;;;20.95;5.72;;;;;;;;;;5010976;28;20042;-81
2022/05/21 09:11:48;;;;;;;13.30;4.63;;;;;;;;;;5002072;28;20489;-86
2022/05/21 09:14:15;;;;;;;12.90;4.50;;;;;;;;;;5010841;28;20068;-76
2022/05/21 09:16:56;;;;;;;16.00;4.28;;;;;;;;;;5007081;28;20080;-82
2022/05/21 09:19:21;;;;;;;16.13;4.57;;;;;;;;;;5005060;28;20029;-74
2022/05/21 09:21:47;;;;;;;14.85;4.28;;;;;;;;;;5003355;28;20030;-79
2022/05/21 09:24:31;;;;;;;19.13;5.68;;;;;;;;;;5008554;28;20022;-75
2022/05/21 09:26:56;;;;;;;20.35;6.28;;;;;;;;;;5004195;28;20429;-79
2022/05/21 09:29:21;;;;;;;21.75;6.57;;;;;;;;;;5004520;28;20187;-76
2022/05/21 09:31:47;;;;;;;22.45;6.00;;;;;;;;;;5010246;28;20028;-74
2022/05/21 09:34:29;;;;;;;11.40;4.20;;;;;;;;;;5007911;28;20034;-72
2022/05/21 09:36:55;;;;;;;14.82;4.55;;;;;;;;;;5000517;28;20507;-74
2022/05/21 09:39:30;;;;;;;19.42;6.20;;;;;;;;;;5007603;28;20030;-77
2022/05/21 09:45:21;;;;;;;16.33;4.68;;;;;;;;;;5008911;28;20791;-72
2022/05/21 09:45:24;;;;;;;21.30;4.60;;;;;;;;;;5002561;28;20034;-75
2022/05/21 09:47:50;;;;;;;16.27;4.28;;;;;;;;;;4992258;28;20033;-81
2022/05/21 09:50:20;;;;;;;17.40;4.57;;;;;;;;;;5006920;28;20026;-75
2022/05/21 09:52:47;;;;;;;14.27;4.30;;;;;;;;;;5004170;28;20068;-79
2022/05/21 09:55:20;;;;;;;17.05;5.10;;;;;;;;;;5007236;28;20144;-77
2022/05/21 09:57:45;;;;;;;15.35;3.83;;;;;;;;;;5002383;28;20018;-74
2022/05/21 10:00:31;;;;;;;13.00;3.57;;;;;;;;;;5007815;28;20469;-73
2022/05/21 10:03:08;;;;;;;12.35;3.20;;;;;;;;;;5003670;28;20046;-77
2022/05/21 10:05:40;;;;;;;20.55;5.05;;;;;;;;;;5003186;28;20037;-74
2022/05/21 10:11:00;;;;;;;13.45;4.40;;;;;;;;;;5005850;28;20047;-78
2022/05/21 10:13:26;;;;;;;17.77;5.07;;;;;;;;;;4999157;28;20087;-76
2022/05/21 10:15:56;;;;;;;12.75;3.60;;;;;;;;;;4996771;28;20377;-75
2022/05/21 10:18:21;;;;;;;13.02;3.97;;;;;;;;;;4992876;28;20041;-77
2022/05/21 10:20:51;;;;;;;15.25;4.40;;;;;;;;;;5001315;28;20026;-73
2022/05/21 10:23:16;;;;;;;14.32;3.40;;;;;;;;;;5003936;28;20040;-73
2022/05/21 10:26:02;;;;;;;10.10;3.47;;;;;;;;;;5002279;28;20026;-81
2022/05/21 10:28:42;;;;;;;11.07;2.78;;;;;;;;;;5004909;28;20298;-78
2022/05/21 10:31:16;;;;;;;11.90;3.47;;;;;;;;;;5007067;28;20064;-79
2022/05/21 10:33:53;;;;;;;6.82;2.92;;;;;;;;;;5003514;28;20412;-74
2022/05/21 10:36:26;;;;;;;11.10;3.22;;;;;;;;;;5003148;28;20121;-79
2022/05/21 10:38:54;;;;;;;11.68;3.17;;;;;;;;;;5004749;28;20435;-74
2022/05/21 10:41:38;;;;;;;12.05;3.40;;;;;;;;;;5003888;28;20109;-75
2022/05/21 10:44:14;;;;;;;9.27;3.10;;;;;;;;;;4999102;28;20049;-77
2022/05/21 10:47:00;;;;;;;12.52;2.63;;;;;;;;;;5006110;28;20018;-72
2022/05/21 10:49:31;;;;;;;14.80;3.28;;;;;;;;;;5001876;28;20110;-75
2022/05/21 10:51:59;;;;;;;10.13;2.63;;;;;;;;;;5004101;28;20029;-76
2022/05/21 10:54:33;;;;;;;15.57;3.00;;;;;;;;;;5000708;28;20029;-73
2022/05/21 10:57:13;;;;;;;15.20;2.90;;;;;;;;;;4998663;28;20030;-74
2022/05/21 10:59:57;;;;;;;8.90;2.35;;;;;;;;;;4995217;28;20018;-75
2022/05/21 11:02:41;;;;;;;14.30;2.67;;;;;;;;;;4999759;28;20042;-76
2022/05/21 11:05:25;;;;;;;8.77;2.78;;;;;;;;;;4999275;28;20037;-76
2022/05/21 11:07:50;;;;;;;16.25;3.45;;;;;;;;;;5000348;28;20101;-75
2022/05/21 11:10:21;;;;;;;12.15;3.38;;;;;;;;;;5004273;28;20108;-77
2022/05/21 11:13:01;;;;;;;23.77;4.50;;;;;;;;;;5003858;28;20072;-75
2022/05/21 11:15:46;;;;;;;8.98;2.30;;;;;;;;;;5004127;28;20026;-71
2022/05/21 11:18:13;;;;;;;7.43;2.40;;;;;;;;;;5001129;28;20029;-77
2022/05/21 11:20:40;;;;;;;10.88;2.28;;;;;;;;;;4999149;28;20021;-74
2022/05/21 11:23:14;;;;;;;9.15;2.30;;;;;;;;;;5004093;28;20448;-76
2022/05/21 11:25:40;;;;;;;11.65;2.35;;;;;;;;;;5002603;28;20026;-78
2022/05/21 11:28:18;;;;;;;8.67;2.27;;;;;;;;;;5001292;28;20481;-74
2022/05/21 11:30:43;;;;;;;11.70;2.70;;;;;;;;;;5006465;28;20038;-79
2022/05/21 11:38:44;;;;;;;;;;;;;;;;;;5001388;28;20029;-79
2022/05/21 11:41:27;;;;;;;7.83;2.53;;;;;;;;;;5004939;28;19909;-79
2022/05/21 11:46:49;;;;;;;11.32;3.20;;;;;;;;;;5000256;28;20065;-75
2022/05/21 11:49:26;;;;;;;11.20;3.25;;;;;;;;;;5001826;28;20022;-79
2022/05/21 11:51:51;;;;;;;18.45;3.95;;;;;;;;;;5003378;28;20356;-79
2022/05/21 11:54:47;;;;;;;14.27;3.67;;;;;;;;;;5000036;28;20045;-79
2022/05/21 11:57:28;;;;;;;9.55;2.83;;;;;;;;;;4997416;28;20465;-77
2022/05/21 11:59:53;;;;;;;12.50;2.50;;;;;;;;;;5003756;28;20041;-79
2022/05/21 12:02:22;;;;;;;6.82;2.33;;;;;;;;;;5003240;28;20021;-78
2022/05/21 12:04:48;;;;;;;6.53;2.60;;;;;;;;;;4996198;28;20056;-78
2022/05/21 12:07:15;;;;;;;14.82;2.78;;;;;;;;;;4997969;28;20022;-74
2022/05/21 12:09:56;;;;;;;8.48;2.25;;;;;;;;;;5000071;28;20026;-77
2022/05/21 12:12:24;;;;;;;8.20;2.17;;;;;;;;;;4998758;28;20469;-79
2022/05/21 12:14:54;;;;;;;13.05;2.20;;;;;;;;;;4999610;28;20025;-77
2022/05/21 12:17:42;;;;;;;7.53;2.17;;;;;;;;;;4993296;28;20046;-78
2022/05/21 12:20:10;;;;;;;9.05;2.35;;;;;;;;;;4996181;28;20029;-77
2022/05/21 12:22:37;;;;;;;11.52;2.53;;;;;;;;;;5001032;28;20430;-75
2022/05/21 12:25:02;;;;;;;10.40;2.22;;;;;;;;;;4999846;28;20172;-77
2022/05/21 12:27:28;;;;;;;10.40;2.70;;;;;;;;;;4995292;28;20034;-77
2022/05/21 12:29:58;;;;;;;8.75;2.65;;;;;;;;;;5000352;28;20022;-77
2022/05/21 12:32:24;;;;;;;12.70;2.13;;;;;;;;;;5003661;28;20025;-79
2022/05/21 12:34:58;;;;;;;8.90;2.45;;;;;;;;;;4998704;28;20026;-77
2022/05/21 12:37:26;;;;;;;9.23;2.03;;;;;;;;;;4999899;28;20372;-77
2022/05/21 12:39:58;;;;;;;9.88;2.63;;;;;;;;;;5007544;28;20014;-78
2022/05/21 12:42:23;;;;;;;10.05;2.30;;;;;;;;;;4999531;28;20033;-76
2022/05/21 12:44:48;;;;;;;7.80;1.70;;;;;;;;;;5002262;28;20022;-78
2022/05/21 12:47:21;;;;;;;7.25;2.30;;;;;;;;;;4999656;28;20141;-82
2022/05/21 12:49:48;;;;;;;7.70;2.63;;;;;;;;;;5001109;28;20053;-74
2022/05/21 12:52:21;;;;;;;6.70;1.90;;;;;;;;;;5005746;28;20025;-76
2022/05/21 12:54:46;;;;;;;9.88;2.60;;;;;;;;;;4999933;28;20021;-76
2022/05/21 12:57:12;;;;;;;7.13;1.83;;;;;;;;;;4998097;28;20026;-75
2022/05/21 12:59:39;;;;;;;8.90;2.00;;;;;;;;;;4997599;28;20037;-75
2022/05/21 13:02:14;;;;;;;9.63;2.53;;;;;;;;;;5008109;28;20026;-78
2022/05/21 13:04:41;;;;;;;7.05;2.10;;;;;;;;;;5001110;28;20021;-73
2022/05/21 13:07:21;;;;;;;9.63;1.90;;;;;;;;;;5009553;28;20428;-78
2022/05/21 13:10:22;;;;;;;9.52;2.13;;;;;;;;;;5005737;28;20022;-72
2022/05/21 13:12:50;;;;;;;10.45;2.20;;;;;;;;;;4902027;29;20070;-72
2022/05/21 13:15:28;;;;;;;12.25;2.33;;;;;;;;;;4988012;28;20038;-75
2022/05/21 13:18:05;;;;;;;6.45;2.03;;;;;;;;;;4999531;28;20393;-79
2022/05/21 13:20:31;;;;;;;9.02;2.08;;;;;;;;;;5003257;28;20030;-79
2022/05/21 13:22:56;;;;;;;10.02;1.98;;;;;;;;;;5006653;28;20053;-76
2022/05/21 13:25:22;;;;;;;6.20;1.80;;;;;;;;;;5005698;28;20068;-69
2022/05/21 13:27:52;;;;;;;7.90;2.38;;;;;;;;;;5000424;28;20050;-74
2022/05/21 13:30:20;;;;;;;5.82;2.00;;;;;;;;;;5002429;28;20483;-74
2022/05/21 13:32:51;;;;;;;8.43;2.17;;;;;;;;;;5003817;28;20495;-72
2022/05/21 13:35:36;;;;;;;8.43;1.80;;;;;;;;;;5008232;28;20037;-77
2022/05/21 13:38:03;;;;;;;5.82;1.75;;;;;;;;;;5006048;28;20030;-77
2022/05/21 13:40:29;;;;;;;8.45;2.30;;;;;;;;;;5007337;28;20476;-75
2022/05/21 13:43:06;;;;;;;5.43;1.90;;;;;;;;;;5005511;28;20056;-76
2022/05/21 13:45:32;;;;;;;5.82;1.55;;;;;;;;;;5005548;28;20026;-76
2022/05/21 13:48:00;;;;;;;7.63;1.98;;;;;;;;;;4997041;28;20021;-71
2022/05/21 13:50:26;;;;;;;7.40;1.80;;;;;;;;;;5001396;28;20033;-78
2022/05/21 13:52:52;;;;;;;8.35;1.98;;;;;;;;;;5001542;28;20034;-82
2022/05/21 13:55:17;;;;;;;4.80;1.63;;;;;;;;;;4995256;28;20484;-76
2022/05/21 13:57:43;;;;;;;6.10;1.80;;;;;;;;;;5001374;28;20204;-80
2022/05/21 14:00:16;;;;;;;9.02;1.90;;;;;;;;;;5002215;28;20072;-78
2022/05/21 14:02:47;;;;;;;4.83;1.60;;;;;;;;;;4998188;28;20061;-77
2022/05/21 14:05:27;;;;;;;7.20;1.58;;;;;;;;;;5003127;28;20018;-79
2022/05/21 14:08:00;;;;;;;6.88;1.80;;;;;;;;;;5001493;28;20032;-79
2022/05/21 14:10:31;;;;;;;5.07;1.70;;;;;;;;;;4998780;28;20392;-83
2022/05/21 14:12:56;;;;;;;5.72;1.75;;;;;;;;;;5002411;28;20026;-80
2022/05/21 14:15:28;;;;;;;7.00;1.65;;;;;;;;;;4999610;28;20609;-77
2022/05/21 14:17:54;;;;;;;9.55;1.60;;;;;;;;;;4998779;28;20166;-78
2022/05/21 14:20:20;;;;;;;8.77;2.17;;;;;;;;;;5002387;28;20293;-76
2022/05/21 14:22:47;;;;;;;11.05;1.88;;;;;;;;;;5004277;28;20060;-78
2022/05/21 14:25:24;;;;;;;7.70;2.10;;;;;;;;;;5000808;28;20033;-75
2022/05/21 14:27:56;;;;;;;9.10;2.17;;;;;;;;;;4999329;28;20088;-79
2022/05/21 14:30:31;;;;;;;10.55;3.00;;;;;;;;;;5002849;28;20037;-76
2022/05/21 14:32:56;;;;;;;7.88;1.83;;;;;;;;;;4998443;28;20017;-77
2022/05/21 14:35:22;;;;;;;9.35;2.10;;;;;;;;;;4997459;28;20033;-75
2022/05/21 14:37:47;;;;;;;7.90;1.83;;;;;;;;;;5000503;28;20036;-77
2022/05/21 14:40:12;;;;;;;5.30;2.10;;;;;;;;;;4999697;28;20040;-78
2022/05/21 14:42:37;;;;;;;5.68;1.80;;;;;;;;;;4999819;28;20492;-80
2022/05/21 14:45:13;;;;;;;6.47;1.80;;;;;;;;;;4997716;28;20044;-76
2022/05/21 14:47:51;;;;;;;7.88;2.30;;;;;;;;;;4994557;28;20104;-73
2022/05/21 14:53:00;;;;;;;7.18;1.98;;;;;;;;;;4999976;28;20437;-72
2022/05/21 14:55:26;;;;;;;7.75;2.47;;;;;;;;;;4993921;28;20481;-74
2022/05/21 14:57:51;;;;;;;6.00;2.50;;;;;;;;;;4998454;28;20041;-72